sensor_id;sensor_type;location;lat;lon;timestamp;pressure;altitude;pressure_sealevel;temperature;humidity
76156;BME280;64906;51.290;7.348;2024-01-25T00:00:14;99727.16;;;17.09;45.99
76156;BME280;64906;51.290;7.348;2024-01-25T00:02:40;99721.97;;;17.08;45.83
76156;BME280;64906;51.290;7.348;2024-01-25T00:05:06;99727.75;;;17.11;45.86
76156;BME280;64906;51.290;7.348;2024-01-25T00:07:31;99731.41;;;17.00;45.95
76156;BME280;64906;51.290;7.348;2024-01-25T00:09:57;99721.72;;;17.09;45.83
76156;BME280;64906;51.290;7.348;2024-01-25T00:12:23;99727.16;;;17.09;45.96
76156;BME280;64906;51.290;7.348;2024-01-25T00:14:48;99731.41;;;17.00;46.09
76156;BME280;64906;51.290;7.348;2024-01-25T00:17:13;99728.34;;;17.13;45.92
76156;BME280;64906;51.290;7.348;2024-01-25T00:19:39;99724.94;;;17.06;45.84
76156;BME280;64906;51.290;7.348;2024-01-25T00:22:06;99724.34;;;17.04;46.03
76156;BME280;64906;51.290;7.348;2024-01-25T00:24:32;99720.78;;;17.04;45.89
76156;BME280;64906;51.290;7.348;2024-01-25T00:26:58;99731.41;;;17.00;46.00
76156;BME280;64906;51.290;7.348;2024-01-25T00:29:23;99733.88;;;17.02;45.92
76156;BME280;64906;51.290;7.348;2024-01-25T00:31:48;99727.59;;;17.01;45.92
76156;BME280;64906;51.290;7.348;2024-01-25T00:34:14;99737.81;;;16.94;45.96
76156;BME280;64906;51.290;7.348;2024-01-25T00:36:39;99752.63;;;16.98;46.07
76156;BME280;64906;51.290;7.348;2024-01-25T00:39:05;99736.19;;;16.93;45.92
76156;BME280;64906;51.290;7.348;2024-01-25T00:41:32;99744.44;;;16.98;45.95
76156;BME280;64906;51.290;7.348;2024-01-25T00:43:57;99746.09;;;16.99;46.00
76156;BME280;64906;51.290;7.348;2024-01-25T00:46:23;99744.19;;;17.00;45.94
76156;BME280;64906;51.290;7.348;2024-01-25T00:48:48;99737.16;;;17.04;45.57
76156;BME280;64906;51.290;7.348;2024-01-25T00:51:21;99730.91;;;17.03;45.79
76156;BME280;64906;51.290;7.348;2024-01-25T00:53:46;99745.84;;;17.01;45.89
76156;BME280;64906;51.290;7.348;2024-01-25T00:56:12;99744.84;;;16.90;45.96
76156;BME280;64906;51.290;7.348;2024-01-25T00:58:37;99742.47;;;16.94;45.88
76156;BME280;64906;51.290;7.348;2024-01-25T01:01:03;99734.53;;;16.92;45.85
76156;BME280;64906;51.290;7.348;2024-01-25T01:03:28;99737.41;;;17.02;45.63
76156;BME280;64906;51.290;7.348;2024-01-25T01:05:54;99737.25;;;16.92;46.10
76156;BME280;64906;51.290;7.348;2024-01-25T01:08:19;99738.50;;;17.01;45.71
76156;BME280;64906;51.290;7.348;2024-01-25T01:10:45;99735.34;;;16.93;45.94
76156;BME280;64906;51.290;7.348;2024-01-25T01:13:10;99738.91;;;16.93;45.69
76156;BME280;64906;51.290;7.348;2024-01-25T01:15:35;99736.09;;;16.88;45.90
76156;BME280;64906;51.290;7.348;2024-01-25T01:18:00;99740.69;;;16.88;45.83
76156;BME280;64906;51.290;7.348;2024-01-25T01:20:26;99741.88;;;16.92;45.86
76156;BME280;64906;51.290;7.348;2024-01-25T01:22:51;99724.78;;;16.96;45.72
76156;BME280;64906;51.290;7.348;2024-01-25T01:25:17;99738.81;;;16.88;46.03
76156;BME280;64906;51.290;7.348;2024-01-25T01:27:42;99728.56;;;16.79;46.17
76156;BME280;64906;51.290;7.348;2024-01-25T01:30:07;99721.28;;;16.84;45.84
76156;BME280;64906;51.290;7.348;2024-01-25T01:32:33;99718.72;;;16.78;45.98
76156;BME280;64906;51.290;7.348;2024-01-25T01:34:58;99742.78;;;16.81;46.05
76156;BME280;64906;51.290;7.348;2024-01-25T01:37:24;99756.63;;;16.79;46.11
76156;BME280;64906;51.290;7.348;2024-01-25T01:39:49;99744.66;;;16.80;45.97
76156;BME280;64906;51.290;7.348;2024-01-25T01:42:14;99759.94;;;16.81;45.94
76156;BME280;64906;51.290;7.348;2024-01-25T01:44:39;99756.72;;;16.84;45.96
76156;BME280;64906;51.290;7.348;2024-01-25T01:47:05;99744.09;;;16.78;46.09
76156;BME280;64906;51.290;7.348;2024-01-25T01:49:30;99750.72;;;16.82;45.91
76156;BME280;64906;51.290;7.348;2024-01-25T01:51:55;99748.13;;;16.76;45.99
76156;BME280;64906;51.290;7.348;2024-01-25T01:54:21;99744.66;;;16.80;46.05
76156;BME280;64906;51.290;7.348;2024-01-25T01:56:47;99752.25;;;16.78;45.98
76156;BME280;64906;51.290;7.348;2024-01-25T01:59:12;99769.47;;;16.79;45.88
76156;BME280;64906;51.290;7.348;2024-01-25T02:01:37;99773.38;;;16.71;46.19
76156;BME280;64906;51.290;7.348;2024-01-25T02:04:04;99776.13;;;16.71;46.30
76156;BME280;64906;51.290;7.348;2024-01-25T02:06:29;99782.06;;;16.68;46.18
76156;BME280;64906;51.290;7.348;2024-01-25T02:08:55;99775.06;;;16.72;46.03
76156;BME280;64906;51.290;7.348;2024-01-25T02:11:23;99782.25;;;16.78;46.09
76156;BME280;64906;51.290;7.348;2024-01-25T02:13:49;99786.06;;;16.77;45.98
76156;BME280;64906;51.290;7.348;2024-01-25T02:16:14;99792.38;;;16.66;46.21
76156;BME280;64906;51.290;7.348;2024-01-25T02:18:41;99783.25;;;16.72;45.90
76156;BME280;64906;51.290;7.348;2024-01-25T02:21:06;99791.91;;;16.69;46.04
76156;BME280;64906;51.290;7.348;2024-01-25T02:23:32;99794.88;;;16.68;46.22
76156;BME280;64906;51.290;7.348;2024-01-25T02:25:57;99792.88;;;16.63;46.30
76156;BME280;64906;51.290;7.348;2024-01-25T02:28:22;99797.81;;;16.66;46.04
76156;BME280;64906;51.290;7.348;2024-01-25T02:30:48;99802.22;;;16.67;46.14
76156;BME280;64906;51.290;7.348;2024-01-25T02:33:13;99796.88;;;16.72;45.56
76156;BME280;64906;51.290;7.348;2024-01-25T02:35:38;99800.47;;;16.61;46.42
76156;BME280;64906;51.290;7.348;2024-01-25T02:38:03;99807.19;;;16.70;46.17
76156;BME280;64906;51.290;7.348;2024-01-25T02:40:29;99801.03;;;16.63;46.17
76156;BME280;64906;51.290;7.348;2024-01-25T02:42:54;99808.97;;;16.65;46.30
76156;BME280;64906;51.290;7.348;2024-01-25T02:45:19;99805.19;;;16.66;46.01
76156;BME280;64906;51.290;7.348;2024-01-25T02:47:45;99806.25;;;16.65;46.05
76156;BME280;64906;51.290;7.348;2024-01-25T02:50:10;99801.38;;;16.67;45.97
76156;BME280;64906;51.290;7.348;2024-01-25T02:52:35;99799.66;;;16.61;46.24
76156;BME280;64906;51.290;7.348;2024-01-25T02:55:00;99793.47;;;16.65;46.08
76156;BME280;64906;51.290;7.348;2024-01-25T02:57:26;99801.88;;;16.64;46.08
76156;BME280;64906;51.290;7.348;2024-01-25T02:59:51;99796.09;;;16.60;46.39
76156;BME280;64906;51.290;7.348;2024-01-25T03:02:16;99799.44;;;16.51;46.37
76156;BME280;64906;51.290;7.348;2024-01-25T03:04:44;99811.16;;;16.63;46.11
76156;BME280;64906;51.290;7.348;2024-01-25T03:07:09;99803.81;;;16.52;46.44
76156;BME280;64906;51.290;7.348;2024-01-25T03:09:35;99812.00;;;16.52;46.25
76156;BME280;64906;51.290;7.348;2024-01-25T03:12:00;99820.97;;;16.64;46.12
76156;BME280;64906;51.290;7.348;2024-01-25T03:14:25;99815.41;;;16.59;46.45
76156;BME280;64906;51.290;7.348;2024-01-25T03:16:50;99827.03;;;16.54;46.21
76156;BME280;64906;51.290;7.348;2024-01-25T03:19:16;99819.22;;;16.58;46.09
76156;BME280;64906;51.290;7.348;2024-01-25T03:21:41;99814.91;;;16.62;45.83
76156;BME280;64906;51.290;7.348;2024-01-25T03:24:06;99824.31;;;16.54;46.19
76156;BME280;64906;51.290;7.348;2024-01-25T03:26:31;99825.38;;;16.53;46.15
76156;BME280;64906;51.290;7.348;2024-01-25T03:28:57;99809.75;;;16.49;46.00
76156;BME280;64906;51.290;7.348;2024-01-25T03:31:22;99816.03;;;16.49;46.05
76156;BME280;64906;51.290;7.348;2024-01-25T03:33:47;99825.50;;;16.47;46.23
76156;BME280;64906;51.290;7.348;2024-01-25T03:36:16;99830.00;;;16.41;46.35
76156;BME280;64906;51.290;7.348;2024-01-25T03:38:41;99830.25;;;16.40;46.37
76156;BME280;64906;51.290;7.348;2024-01-25T03:41:06;99819.81;;;16.48;46.17
76156;BME280;64906;51.290;7.348;2024-01-25T03:43:32;99813.56;;;16.48;46.29
76156;BME280;64906;51.290;7.348;2024-01-25T03:45:57;99820.91;;;16.47;46.25
76156;BME280;64906;51.290;7.348;2024-01-25T03:48:22;99832.75;;;16.41;46.34
76156;BME280;64906;51.290;7.348;2024-01-25T03:50:47;99833.44;;;16.48;46.29
76156;BME280;64906;51.290;7.348;2024-01-25T03:53:13;99838.19;;;16.41;46.26
76156;BME280;64906;51.290;7.348;2024-01-25T03:55:38;99830.00;;;16.41;46.36
76156;BME280;64906;51.290;7.348;2024-01-25T03:58:04;99832.16;;;16.39;46.43
76156;BME280;64906;51.290;7.348;2024-01-25T04:00:29;99829.66;;;16.38;46.39
76156;BME280;64906;51.290;7.348;2024-01-25T04:02:54;99838.53;;;16.45;46.21
76156;BME280;64906;51.290;7.348;2024-01-25T04:05:20;99847.91;;;16.37;46.38
76156;BME280;64906;51.290;7.348;2024-01-25T04:07:45;99849.91;;;16.42;46.17
76156;BME280;64906;51.290;7.348;2024-01-25T04:10:10;99844.22;;;16.43;46.25
76156;BME280;64906;51.290;7.348;2024-01-25T04:12:36;99856.66;;;16.39;46.25
76156;BME280;64906;51.290;7.348;2024-01-25T04:15:01;99860.94;;;16.35;46.40
76156;BME280;64906;51.290;7.348;2024-01-25T04:17:26;99859.16;;;16.29;46.44
76156;BME280;64906;51.290;7.348;2024-01-25T04:19:52;99860.72;;;16.37;46.30
76156;BME280;64906;51.290;7.348;2024-01-25T04:22:17;99857.03;;;16.31;46.39
76156;BME280;64906;51.290;7.348;2024-01-25T04:24:42;99866.06;;;16.32;46.42
76156;BME280;64906;51.290;7.348;2024-01-25T04:27:09;99862.84;;;16.35;46.50
76156;BME280;64906;51.290;7.348;2024-01-25T04:29:38;99858.13;;;16.30;46.48
76156;BME280;64906;51.290;7.348;2024-01-25T04:32:04;99861.28;;;16.27;46.32
76156;BME280;64906;51.290;7.348;2024-01-25T04:34:29;99856.22;;;16.31;46.50
76156;BME280;64906;51.290;7.348;2024-01-25T04:36:54;99853.59;;;16.24;46.63
76156;BME280;64906;51.290;7.348;2024-01-25T04:39:19;99856.22;;;16.31;46.25
76156;BME280;64906;51.290;7.348;2024-01-25T04:41:45;99855.59;;;16.29;46.36
76156;BME280;64906;51.290;7.348;2024-01-25T04:44:10;99856.56;;;16.34;45.91
76156;BME280;64906;51.290;7.348;2024-01-25T04:46:35;99864.16;;;16.21;46.65
76156;BME280;64906;51.290;7.348;2024-01-25T04:49:03;99863.09;;;16.22;46.63
76156;BME280;64906;51.290;7.348;2024-01-25T04:51:28;99865.00;;;16.21;46.88
76156;BME280;64906;51.290;7.348;2024-01-25T04:53:53;99858.81;;;16.14;46.89
76156;BME280;64906;51.290;7.348;2024-01-25T04:56:18;99841.78;;;16.19;46.85
76156;BME280;64906;51.290;7.348;2024-01-25T04:58:44;99850.28;;;16.22;46.79
76156;BME280;64906;51.290;7.348;2024-01-25T05:01:09;99838.81;;;16.20;46.96
76156;BME280;64906;51.290;7.348;2024-01-25T05:03:34;99832.19;;;16.16;46.96
76156;BME280;64906;51.290;7.348;2024-01-25T05:05:59;99836.47;;;16.24;46.71
76156;BME280;64906;51.290;7.348;2024-01-25T05:08:26;99842.25;;;16.15;46.62
76156;BME280;64906;51.290;7.348;2024-01-25T05:10:51;99840.59;;;16.26;46.72
76156;BME280;64906;51.290;7.348;2024-01-25T05:13:17;99836.31;;;16.30;47.01
76156;BME280;64906;51.290;7.348;2024-01-25T05:15:43;99843.78;;;16.23;47.08
76156;BME280;64906;51.290;7.348;2024-01-25T05:18:09;99840.34;;;16.16;47.38
76156;BME280;64906;51.290;7.348;2024-01-25T05:20:34;99835.03;;;16.21;47.31
76156;BME280;64906;51.290;7.348;2024-01-25T05:23:02;99830.41;;;16.22;47.41
76156;BME280;64906;51.290;7.348;2024-01-25T05:25:28;99831.13;;;16.17;47.39
76156;BME280;64906;51.290;7.348;2024-01-25T05:27:54;99834.88;;;16.28;47.35
76156;BME280;64906;51.290;7.348;2024-01-25T05:30:20;99830.75;;;16.37;47.14
76156;BME280;64906;51.290;7.348;2024-01-25T05:32:45;99847.22;;;16.30;47.42
76156;BME280;64906;51.290;7.348;2024-01-25T05:35:13;99846.63;;;16.28;47.34
76156;BME280;64906;51.290;7.348;2024-01-25T05:37:38;99851.25;;;16.28;47.57
76156;BME280;64906;51.290;7.348;2024-01-25T05:40:04;99857.53;;;16.28;47.69
76156;BME280;64906;51.290;7.348;2024-01-25T05:42:30;99851.84;;;16.18;47.96
76156;BME280;64906;51.290;7.348;2024-01-25T05:44:55;99848.88;;;16.31;47.74
76156;BME280;64906;51.290;7.348;2024-01-25T05:47:20;99862.13;;;16.28;47.70
76156;BME280;64906;51.290;7.348;2024-01-25T05:49:46;99860.25;;;16.28;47.78
76156;BME280;64906;51.290;7.348;2024-01-25T05:52:11;99859.66;;;16.26;48.15
76156;BME280;64906;51.290;7.348;2024-01-25T05:54:36;99860.72;;;16.25;47.88
76156;BME280;64906;51.290;7.348;2024-01-25T05:57:02;99864.13;;;16.32;47.88
76156;BME280;64906;51.290;7.348;2024-01-25T05:59:29;99855.72;;;16.45;47.57
76156;BME280;64906;51.290;7.348;2024-01-25T06:01:54;99866.63;;;16.34;47.93
76156;BME280;64906;51.290;7.348;2024-01-25T06:04:20;99861.88;;;16.41;47.71
76156;BME280;64906;51.290;7.348;2024-01-25T06:06:45;99862.72;;;16.41;47.75
76156;BME280;64906;51.290;7.348;2024-01-25T06:09:10;99867.56;;;16.39;48.18
76156;BME280;64906;51.290;7.348;2024-01-25T06:11:36;99862.72;;;16.30;48.33
76156;BME280;64906;51.290;7.348;2024-01-25T06:14:02;99865.69;;;16.40;48.00
76156;BME280;64906;51.290;7.348;2024-01-25T06:16:27;99869.22;;;16.52;47.64
76156;BME280;64906;51.290;7.348;2024-01-25T06:18:53;99864.63;;;16.29;48.15
76156;BME280;64906;51.290;7.348;2024-01-25T06:21:18;99855.94;;;16.55;47.67
76156;BME280;64906;51.290;7.348;2024-01-25T06:23:43;99856.69;;;16.51;47.69
76156;BME280;64906;51.290;7.348;2024-01-25T06:26:08;99868.78;;;16.55;47.73
76156;BME280;64906;51.290;7.348;2024-01-25T06:28:34;99877.38;;;16.40;48.29
76156;BME280;64906;51.290;7.348;2024-01-25T06:31:01;99878.81;;;16.66;47.62
76156;BME280;64906;51.290;7.348;2024-01-25T06:33:26;99886.53;;;16.57;47.89
76156;BME280;64906;51.290;7.348;2024-01-25T06:35:52;99889.47;;;16.44;48.38
76156;BME280;64906;51.290;7.348;2024-01-25T06:38:17;99890.31;;;16.45;48.16
76156;BME280;64906;51.290;7.348;2024-01-25T06:40:43;99903.00;;;16.62;47.74
76156;BME280;64906;51.290;7.348;2024-01-25T06:43:08;99906.56;;;16.40;48.42
76156;BME280;64906;51.290;7.348;2024-01-25T06:45:34;99903.34;;;16.43;48.52
76156;BME280;64906;51.290;7.348;2024-01-25T06:47:59;99902.50;;;16.65;48.07
76156;BME280;64906;51.290;7.348;2024-01-25T06:50:24;99899.44;;;16.62;47.89
76156;BME280;64906;51.290;7.348;2024-01-25T06:52:49;99904.66;;;16.52;48.37
76156;BME280;64906;51.290;7.348;2024-01-25T06:55:15;99904.16;;;16.66;47.95
76156;BME280;64906;51.290;7.348;2024-01-25T06:57:41;99903.25;;;16.61;48.29
76156;BME280;64906;51.290;7.348;2024-01-25T07:00:06;99903.22;;;16.72;47.87
76156;BME280;64906;51.290;7.348;2024-01-25T07:02:33;99904.50;;;16.70;47.82
76156;BME280;64906;51.290;7.348;2024-01-25T07:04:58;99924.66;;;16.80;47.73
76156;BME280;64906;51.290;7.348;2024-01-25T07:07:23;99924.78;;;16.74;48.02
76156;BME280;64906;51.290;7.348;2024-01-25T07:09:48;99924.06;;;16.78;47.78
76156;BME280;64906;51.290;7.348;2024-01-25T07:12:14;99928.00;;;16.71;48.12
76156;BME280;64906;51.290;7.348;2024-01-25T07:14:39;99926.53;;;16.80;47.96
76156;BME280;64906;51.290;7.348;2024-01-25T07:17:04;99922.06;;;16.74;48.13
76156;BME280;64906;51.290;7.348;2024-01-25T07:19:29;99929.16;;;16.75;48.02
76156;BME280;64906;51.290;7.348;2024-01-25T07:21:55;99932.94;;;16.85;47.93
76156;BME280;64906;51.290;7.348;2024-01-25T07:24:20;99927.00;;;16.88;47.86
76156;BME280;64906;51.290;7.348;2024-01-25T07:26:45;99933.19;;;16.84;48.00
76156;BME280;64906;51.290;7.348;2024-01-25T07:29:11;99931.00;;;16.86;47.95
76156;BME280;64906;51.290;7.348;2024-01-25T07:31:36;99939.50;;;17.01;47.67
76156;BME280;64906;51.290;7.348;2024-01-25T07:34:01;99944.53;;;16.92;47.91
76156;BME280;64906;51.290;7.348;2024-01-25T07:36:27;99942.59;;;17.04;47.98
76156;BME280;64906;51.290;7.348;2024-01-25T07:38:52;99934.19;;;16.94;47.90
76156;BME280;64906;51.290;7.348;2024-01-25T07:41:17;99936.78;;;17.01;47.63
76156;BME280;64906;51.290;7.348;2024-01-25T07:43:43;99939.31;;;16.91;48.00
76156;BME280;64906;51.290;7.348;2024-01-25T07:46:08;99942.59;;;17.04;47.60
76156;BME280;64906;51.290;7.348;2024-01-25T07:48:33;99937.59;;;17.13;47.70
76156;BME280;64906;51.290;7.348;2024-01-25T07:50:59;99938.72;;;17.00;47.68
76156;BME280;64906;51.290;7.348;2024-01-25T07:53:24;99938.97;;;17.15;47.68
76156;BME280;64906;51.290;7.348;2024-01-25T07:55:50;99936.75;;;17.12;47.56
76156;BME280;64906;51.290;7.348;2024-01-25T07:58:15;99951.34;;;17.18;47.44
76156;BME280;64906;51.290;7.348;2024-01-25T08:00:41;99954.31;;;17.16;47.42
76156;BME280;64906;51.290;7.348;2024-01-25T08:03:07;99952.91;;;17.02;47.71
76156;BME280;64906;51.290;7.348;2024-01-25T08:05:33;99950.25;;;17.19;47.20
76156;BME280;64906;51.290;7.348;2024-01-25T08:07:58;99950.34;;;17.24;47.37
76156;BME280;64906;51.290;7.348;2024-01-25T08:10:23;99949.22;;;17.08;47.64
76156;BME280;64906;51.290;7.348;2024-01-25T08:12:49;99962.09;;;17.24;47.21
76156;BME280;64906;51.290;7.348;2024-01-25T08:15:14;99955.25;;;17.10;47.70
76156;BME280;64906;51.290;7.348;2024-01-25T08:17:39;99962.66;;;17.38;46.96
76156;BME280;64906;51.290;7.348;2024-01-25T08:20:05;99954.47;;;17.38;47.09
76156;BME280;64906;51.290;7.348;2024-01-25T08:22:34;99954.66;;;17.48;46.82
76156;BME280;64906;51.290;7.348;2024-01-25T08:25:00;99951.59;;;17.44;46.71
76156;BME280;64906;51.290;7.348;2024-01-25T08:27:25;99951.84;;;17.43;46.77
76156;BME280;64906;51.290;7.348;2024-01-25T08:29:50;99954.44;;;17.50;46.56
76156;BME280;64906;51.290;7.348;2024-01-25T08:32:16;99953.34;;;17.51;46.54
76156;BME280;64906;51.290;7.348;2024-01-25T08:34:41;99954.72;;;17.36;46.94
76156;BME280;64906;51.290;7.348;2024-01-25T08:37:07;99950.53;;;17.46;47.02
76156;BME280;64906;51.290;7.348;2024-01-25T08:39:32;99941.72;;;17.72;46.25
76156;BME280;64906;51.290;7.348;2024-01-25T08:41:57;99941.47;;;17.73;46.18
76156;BME280;64906;51.290;7.348;2024-01-25T08:44:26;99944.94;;;17.69;46.30
76156;BME280;64906;51.290;7.348;2024-01-25T08:46:52;99935.75;;;17.75;46.10
76156;BME280;64906;51.290;7.348;2024-01-25T08:49:17;99944.19;;;17.73;46.37
76156;BME280;64906;51.290;7.348;2024-01-25T08:51:42;99935.16;;;17.73;46.39
76156;BME280;64906;51.290;7.348;2024-01-25T08:54:08;99935.59;;;17.81;46.32
76156;BME280;64906;51.290;7.348;2024-01-25T08:56:34;99939.41;;;17.80;46.25
76156;BME280;64906;51.290;7.348;2024-01-25T08:58:59;99938.59;;;17.80;45.93
76156;BME280;64906;51.290;7.348;2024-01-25T09:01:25;99934.47;;;17.94;46.03
76156;BME280;64906;51.290;7.348;2024-01-25T09:03:50;99946.28;;;17.83;46.31
76156;BME280;64906;51.290;7.348;2024-01-25T09:06:15;99955.81;;;17.97;46.04
76156;BME280;64906;51.290;7.348;2024-01-25T09:08:41;99960.03;;;18.04;46.04
76156;BME280;64906;51.290;7.348;2024-01-25T09:11:06;99956.97;;;18.17;45.86
76156;BME280;64906;51.290;7.348;2024-01-25T09:13:32;99964.44;;;18.05;45.76
76156;BME280;64906;51.290;7.348;2024-01-25T09:15:57;99968.22;;;18.04;46.06
76156;BME280;64906;51.290;7.348;2024-01-25T09:18:22;99967.91;;;18.17;45.74
76156;BME280;64906;51.290;7.348;2024-01-25T09:20:48;99970.28;;;18.14;45.66
76156;BME280;64906;51.290;7.348;2024-01-25T09:23:16;99966.09;;;18.06;45.96
76156;BME280;64906;51.290;7.348;2024-01-25T09:25:42;99968.31;;;18.26;45.30
76156;BME280;64906;51.290;7.348;2024-01-25T09:28:08;99961.34;;;18.35;45.48
76156;BME280;64906;51.290;7.348;2024-01-25T09:30:33;99966.66;;;18.41;45.24
76156;BME280;64906;51.290;7.348;2024-01-25T09:32:58;99964.75;;;18.42;45.16
76156;BME280;64906;51.290;7.348;2024-01-25T09:35:24;99958.88;;;18.50;44.85
76156;BME280;64906;51.290;7.348;2024-01-25T09:37:49;99959.78;;;18.55;44.98
76156;BME280;64906;51.290;7.348;2024-01-25T09:40:18;99949.50;;;18.62;44.79
76156;BME280;64906;51.290;7.348;2024-01-25T09:42:46;99953.94;;;18.68;44.70
76156;BME280;64906;51.290;7.348;2024-01-25T09:45:16;99961.59;;;18.50;45.14
76156;BME280;64906;51.290;7.348;2024-01-25T09:47:42;99960.91;;;18.59;44.79
76156;BME280;64906;51.290;7.348;2024-01-25T09:50:08;99973.28;;;18.62;44.73
76156;BME280;64906;51.290;7.348;2024-01-25T09:52:34;99980.31;;;18.58;44.75
76156;BME280;64906;51.290;7.348;2024-01-25T09:54:59;99993.38;;;18.72;44.73
76156;BME280;64906;51.290;7.348;2024-01-25T09:57:28;100003.00;;;18.75;44.69
76156;BME280;64906;51.290;7.348;2024-01-25T09:59:54;99995.38;;;18.77;44.50
76156;BME280;64906;51.290;7.348;2024-01-25T10:02:22;99993.47;;;18.99;44.21
76156;BME280;64906;51.290;7.348;2024-01-25T10:04:52;99981.84;;;18.87;44.23
76156;BME280;64906;51.290;7.348;2024-01-25T10:07:41;99974.19;;;18.89;44.98
76156;BME280;64906;51.290;7.348;2024-01-25T10:10:07;99978.28;;;19.08;44.73
76156;BME280;64906;51.290;7.348;2024-01-25T10:12:33;99992.19;;;18.85;44.75
76156;BME280;64906;51.290;7.348;2024-01-25T10:14:58;99998.28;;;18.92;44.75
76156;BME280;64906;51.290;7.348;2024-01-25T10:17:24;99996.09;;;19.11;44.20
76156;BME280;64906;51.290;7.348;2024-01-25T10:19:50;99991.50;;;18.95;44.59
76156;BME280;64906;51.290;7.348;2024-01-25T10:22:15;99987.22;;;19.04;44.52
76156;BME280;64906;51.290;7.348;2024-01-25T10:24:40;99984.69;;;19.19;44.11
76156;BME280;64906;51.290;7.348;2024-01-25T10:27:09;99979.03;;;19.25;43.81
76156;BME280;64906;51.290;7.348;2024-01-25T10:29:34;99976.44;;;19.35;43.65
76156;BME280;64906;51.290;7.348;2024-01-25T10:32:00;99979.94;;;19.31;43.68
76156;BME280;64906;51.290;7.348;2024-01-25T10:34:26;99979.84;;;19.26;43.89
76156;BME280;64906;51.290;7.348;2024-01-25T10:36:53;99983.91;;;19.23;43.94
76156;BME280;64906;51.290;7.348;2024-01-25T10:39:21;99983.28;;;19.33;43.58
76156;BME280;64906;51.290;7.348;2024-01-25T10:41:47;99973.28;;;19.27;44.20
76156;BME280;64906;51.290;7.348;2024-01-25T10:44:16;99967.31;;;19.30;44.31
76156;BME280;64906;51.290;7.348;2024-01-25T10:46:46;99973.19;;;19.38;43.99
76156;BME280;64906;51.290;7.348;2024-01-25T10:49:12;99962.28;;;19.43;44.38
76156;BME280;64906;51.290;7.348;2024-01-25T10:51:39;99943.19;;;19.48;43.96
76156;BME280;64906;51.290;7.348;2024-01-25T10:54:09;99944.31;;;19.52;44.27
76156;BME280;64906;51.290;7.348;2024-01-25T10:56:36;99933.84;;;19.76;43.67
76156;BME280;64906;51.290;7.348;2024-01-25T10:59:02;99937.94;;;19.73;43.47
76156;BME280;64906;51.290;7.348;2024-01-25T11:01:28;99935.78;;;19.75;43.50
76156;BME280;64906;51.290;7.348;2024-01-25T11:03:54;99928.72;;;19.84;43.73
76156;BME280;64906;51.290;7.348;2024-01-25T11:06:21;99921.66;;;19.88;43.64
76156;BME280;64906;51.290;7.348;2024-01-25T11:08:47;99917.78;;;19.84;43.70
76156;BME280;64906;51.290;7.348;2024-01-25T11:11:14;99922.72;;;19.87;43.78
76156;BME280;64906;51.290;7.348;2024-01-25T11:13:41;99920.78;;;19.83;43.81
76156;BME280;64906;51.290;7.348;2024-01-25T11:21:09;99917.06;;;19.99;43.32
76156;BME280;64906;51.290;7.348;2024-01-25T11:23:34;99917.59;;;19.96;43.23
76156;BME280;64906;51.290;7.348;2024-01-25T11:26:00;99918.50;;;20.07;43.44
76156;BME280;64906;51.290;7.348;2024-01-25T11:28:26;99912.56;;;20.15;43.03
76156;BME280;64906;51.290;7.348;2024-01-25T11:30:51;99913.94;;;20.17;43.08
76156;BME280;64906;51.290;7.348;2024-01-25T11:33:17;99914.78;;;20.18;42.85
76156;BME280;64906;51.290;7.348;2024-01-25T11:35:54;99906.28;;;20.19;42.92
76156;BME280;64906;51.290;7.348;2024-01-25T11:38:19;99907.09;;;20.15;43.06
76156;BME280;64906;51.290;7.348;2024-01-25T11:40:44;99908.19;;;20.19;43.06
76156;BME280;64906;51.290;7.348;2024-01-25T11:43:10;99886.03;;;20.25;43.10
76156;BME280;64906;51.290;7.348;2024-01-25T11:45:37;99893.38;;;20.15;43.10
76156;BME280;64906;51.290;7.348;2024-01-25T11:48:07;99887.44;;;20.28;43.13
76156;BME280;64906;51.290;7.348;2024-01-25T11:50:32;99878.88;;;20.19;42.90
76156;BME280;64906;51.290;7.348;2024-01-25T11:52:58;99880.22;;;20.17;43.36
76156;BME280;64906;51.290;7.348;2024-01-25T11:55:23;99875.94;;;20.31;42.55
76156;BME280;64906;51.290;7.348;2024-01-25T11:57:48;99871.81;;;20.33;42.67
76156;BME280;64906;51.290;7.348;2024-01-25T12:00:14;99878.41;;;20.32;42.77
76156;BME280;64906;51.290;7.348;2024-01-25T12:02:40;99865.53;;;20.33;42.68
76156;BME280;64906;51.290;7.348;2024-01-25T12:05:06;99869.53;;;20.20;42.85
76156;BME280;64906;51.290;7.348;2024-01-25T12:07:32;99863.25;;;20.20;42.54
76156;BME280;64906;51.290;7.348;2024-01-25T12:10:03;99860.50;;;20.20;42.54
76156;BME280;64906;51.290;7.348;2024-01-25T12:12:29;99858.78;;;20.14;42.59
76156;BME280;64906;51.290;7.348;2024-01-25T12:14:58;99852.00;;;20.16;42.74
76156;BME280;64906;51.290;7.348;2024-01-25T12:17:29;99856.56;;;20.11;42.73
76156;BME280;64906;51.290;7.348;2024-01-25T12:19:55;99860.59;;;19.98;42.74
76156;BME280;64906;51.290;7.348;2024-01-25T12:22:22;99853.53;;;20.07;42.61
76156;BME280;64906;51.290;7.348;2024-01-25T12:24:47;99850.19;;;19.95;42.87
76156;BME280;64906;51.290;7.348;2024-01-25T12:27:14;99841.38;;;19.93;42.96
76156;BME280;64906;51.290;7.348;2024-01-25T12:29:40;99835.63;;;19.94;42.93
76156;BME280;64906;51.290;7.348;2024-01-25T12:32:05;99840.31;;;19.99;42.87
76156;BME280;64906;51.290;7.348;2024-01-25T12:34:31;99837.31;;;20.00;42.41
76156;BME280;64906;51.290;7.348;2024-01-25T12:36:56;99841.09;;;19.89;43.05
76156;BME280;64906;51.290;7.348;2024-01-25T12:39:21;99836.22;;;19.96;42.92
76156;BME280;64906;51.290;7.348;2024-01-25T12:41:47;99837.25;;;19.90;42.58
76156;BME280;64906;51.290;7.348;2024-01-25T12:44:12;99822.50;;;19.96;42.90
76156;BME280;64906;51.290;7.348;2024-01-25T12:46:37;99823.03;;;19.98;42.56
76156;BME280;64906;51.290;7.348;2024-01-25T12:49:03;99824.88;;;19.83;43.11
76156;BME280;64906;51.290;7.348;2024-01-25T12:51:29;99838.66;;;19.93;42.46
76156;BME280;64906;51.290;7.348;2024-01-25T12:53:54;99844.13;;;19.93;42.83
76156;BME280;64906;51.290;7.348;2024-01-25T12:56:20;99844.09;;;19.88;42.69